createdAt,value
2019-02-08T00:03:04.709Z,10.63
2019-02-08T00:07:08.456Z,9.30
2019-02-08T00:11:11.910Z,8.13
2019-02-08T00:15:15.361Z,9.60
2019-02-08T00:19:18.819Z,11.03
2019-02-08T00:23:26.695Z,9.97
2019-02-08T00:27:28.422Z,10.00
2019-02-08T00:31:31.892Z,8.47
2019-02-08T00:35:35.347Z,7.40
2019-02-08T00:39:38.810Z,8.77
2019-02-08T00:43:42.263Z,9.03
2019-02-08T00:47:45.721Z,6.57
2019-02-08T00:51:49.182Z,7.40
2019-02-08T00:55:52.630Z,7.27
2019-02-08T00:59:56.085Z,2.30
2019-02-08T01:03:59.562Z,2.57
2019-02-08T01:08:03.015Z,2.57
2019-02-08T01:12:06.454Z,2.00
2019-02-08T01:16:09.912Z,1.90
2019-02-08T01:20:13.364Z,2.27
2019-02-08T01:24:16.817Z,3.10
2019-02-08T01:28:20.270Z,4.43
2019-02-08T01:32:23.711Z,5.60
2019-02-08T01:36:27.166Z,6.67
2019-02-08T01:40:30.649Z,6.17
2019-02-08T01:44:34.100Z,6.00
2019-02-08T01:48:37.560Z,7.17
2019-02-08T01:52:41.012Z,5.23
2019-02-08T01:56:44.470Z,2.07
2019-02-08T02:00:47.924Z,2.00
2019-02-08T02:04:51.542Z,2.40
2019-02-08T02:08:55.000Z,3.63
2019-02-08T02:12:58.451Z,4.27
2019-02-08T02:17:01.902Z,2.87
2019-02-08T02:21:05.385Z,3.30
2019-02-08T02:25:08.829Z,2.90
2019-02-08T02:29:13.355Z,3.77
2019-02-08T02:33:16.811Z,2.80
2019-02-08T02:37:20.258Z,3.23
2019-02-08T02:41:23.712Z,4.07
2019-02-08T02:45:27.172Z,3.37
2019-02-08T02:49:30.614Z,3.43
2019-02-08T02:53:34.078Z,3.33
2019-02-08T02:57:37.538Z,3.33
2019-02-08T03:01:41.005Z,2.80
2019-02-08T03:05:44.456Z,2.37
2019-02-08T03:09:47.915Z,3.23
2019-02-08T03:13:51.382Z,3.87
2019-02-08T03:17:54.841Z,3.90
2019-02-08T03:21:58.285Z,3.17
2019-02-08T03:26:01.740Z,4.20
2019-02-08T03:30:05.182Z,3.63
2019-02-08T03:34:08.634Z,4.43
2019-02-08T03:38:12.102Z,4.37
2019-02-08T03:42:15.552Z,5.93
2019-02-08T03:46:19.013Z,4.00
2019-02-08T03:50:22.513Z,4.43
2019-02-08T03:54:25.973Z,3.47
2019-02-08T03:58:29.421Z,4.40
2019-02-08T04:02:32.878Z,3.50
2019-02-08T04:06:36.322Z,4.10
2019-02-08T04:10:39.785Z,4.03
2019-02-08T04:14:43.237Z,3.83
2019-02-08T04:18:46.690Z,3.80
2019-02-08T04:22:50.142Z,3.30
2019-02-08T04:26:53.591Z,3.23
2019-02-08T04:30:57.041Z,3.83
2019-02-08T04:35:00.574Z,3.73
2019-02-08T04:39:04.717Z,4.13
2019-02-08T04:43:08.162Z,3.97
2019-02-08T04:47:11.618Z,5.23
2019-02-08T04:51:15.081Z,4.40
2019-02-08T04:55:18.536Z,3.43
2019-02-08T04:59:21.996Z,4.93
2019-02-08T05:03:25.447Z,5.20
2019-02-08T05:07:28.910Z,5.63
2019-02-08T05:11:32.368Z,5.20
2019-02-08T05:15:35.825Z,5.60
2019-02-08T05:19:39.276Z,6.20
2019-02-08T05:23:42.720Z,6.17
2019-02-08T05:27:46.177Z,6.73
2019-02-08T05:31:49.633Z,5.87
2019-02-08T05:35:53.107Z,6.80
2019-02-08T05:39:56.587Z,7.10
2019-02-08T05:44:00.039Z,6.40
2019-02-08T05:48:03.497Z,6.43
2019-02-08T05:52:06.956Z,6.80
2019-02-08T05:56:10.411Z,7.23
2019-02-08T06:00:14.019Z,6.30
2019-02-08T06:04:17.461Z,6.27
2019-02-08T06:08:20.915Z,7.00
2019-02-08T06:12:24.845Z,8.10
2019-02-08T06:16:28.305Z,7.70
2019-02-08T06:20:31.765Z,6.80
2019-02-08T06:24:35.222Z,6.67
2019-02-08T06:28:38.682Z,6.50
2019-02-08T06:32:42.147Z,6.77
2019-02-08T06:36:45.606Z,7.40
2019-02-08T06:40:49.057Z,6.63
2019-02-08T06:44:52.507Z,7.10
2019-02-08T06:48:55.963Z,6.47
2019-02-08T06:52:59.418Z,7.70
2019-02-08T06:57:04.526Z,6.37
2019-02-08T07:01:09.617Z,6.40
2019-02-08T07:05:20.496Z,6.13
2019-02-08T07:09:31.577Z,6.30
2019-02-08T07:13:42.629Z,6.30
2019-02-08T07:17:47.722Z,6.57
2019-02-08T07:22:04.828Z,5.90
2019-02-08T07:26:09.918Z,4.63
2019-02-08T07:30:15.018Z,5.37
2019-02-08T07:34:26.036Z,6.30
2019-02-08T07:38:31.142Z,5.20
2019-02-08T07:42:48.191Z,6.00
2019-02-08T07:47:02.095Z,4.77
2019-02-08T07:51:10.153Z,4.60
2019-02-08T07:55:15.263Z,3.63
2019-02-08T07:59:23.465Z,4.43
2019-02-08T08:03:46.750Z,4.67
2019-02-08T08:07:57.761Z,4.33
2019-02-08T08:12:02.869Z,5.23
2019-02-08T08:16:23.199Z,6.10
2019-02-08T08:20:28.304Z,5.40
2019-02-08T08:24:45.727Z,4.77
2019-02-08T08:29:02.831Z,6.37
2019-02-08T08:33:07.579Z,5.17
2019-02-08T08:37:11.028Z,5.73
2019-02-08T08:41:14.484Z,7.97
2019-02-08T08:45:17.947Z,6.83
2019-02-08T08:49:21.402Z,7.27
2019-02-08T08:53:24.863Z,9.13
2019-02-08T08:57:28.327Z,10.73
2019-02-08T09:01:31.801Z,10.50
2019-02-08T09:05:35.272Z,10.20
2019-02-08T09:09:38.793Z,10.10
2019-02-08T09:13:42.199Z,10.17
2019-02-08T09:17:45.655Z,9.17
2019-02-08T09:21:49.121Z,9.20
2019-02-08T09:25:52.581Z,7.83
2019-02-08T09:29:56.043Z,8.63
2019-02-08T09:33:59.493Z,7.17
2019-02-08T09:38:02.952Z,7.20
2019-02-08T09:42:06.406Z,7.27
2019-02-08T09:46:09.872Z,8.00
2019-02-08T09:50:13.349Z,7.10
2019-02-08T09:54:16.812Z,7.03
2019-02-08T09:58:20.264Z,6.03
2019-02-08T10:02:23.751Z,5.13
2019-02-08T10:06:27.188Z,5.97
2019-02-08T10:10:30.643Z,6.47
2019-02-08T10:14:34.106Z,4.93
2019-02-08T10:18:37.607Z,6.17
2019-02-08T10:22:41.021Z,6.07
2019-02-08T10:26:44.487Z,6.77
2019-02-08T10:30:47.953Z,6.10
2019-02-08T10:34:51.417Z,6.80
2019-02-08T10:38:54.876Z,6.53
2019-02-08T10:42:58.344Z,6.00
2019-02-08T10:47:01.803Z,4.03
2019-02-08T10:51:05.252Z,4.63
2019-02-08T10:55:08.707Z,5.30
2019-02-08T10:59:12.174Z,4.60
2019-02-08T11:03:15.632Z,4.73
2019-02-08T11:07:19.090Z,5.20
2019-02-08T11:11:23.063Z,4.97
2019-02-08T11:15:26.564Z,3.70
2019-02-08T11:19:30.020Z,4.73
2019-02-08T11:23:33.476Z,4.87
2019-02-08T11:27:36.940Z,5.50
2019-02-08T11:31:40.392Z,5.20
2019-02-08T11:35:43.853Z,4.77
2019-02-08T11:39:47.308Z,5.77
2019-02-08T11:43:50.780Z,5.27
2019-02-08T11:47:54.232Z,5.67
2019-02-08T11:51:57.753Z,6.60
2019-02-08T11:56:01.224Z,5.20
2019-02-08T12:00:04.679Z,4.83
2019-02-08T12:04:08.825Z,5.53
2019-02-08T12:08:13.347Z,4.90
2019-02-08T12:12:16.801Z,4.97
2019-02-08T12:16:20.263Z,5.27
2019-02-08T12:20:23.731Z,4.37
2019-02-08T12:24:27.194Z,4.37
2019-02-08T12:28:31.831Z,4.40
2019-02-08T12:32:35.480Z,4.13
2019-02-08T12:36:38.940Z,3.93
2019-02-08T12:40:42.397Z,4.30
2019-02-08T12:44:45.850Z,3.53
2019-02-08T12:48:49.318Z,3.63
2019-02-08T12:52:52.780Z,4.40
2019-02-08T12:56:56.254Z,3.40
2019-02-08T13:00:59.714Z,3.93
2019-02-08T13:05:03.187Z,3.97
2019-02-08T13:09:06.651Z,3.97
2019-02-08T13:13:10.106Z,3.93
2019-02-08T13:17:13.563Z,3.13
2019-02-08T13:21:17.025Z,3.53
2019-02-08T13:25:20.513Z,3.57
2019-02-08T13:29:23.975Z,3.43
2019-02-08T13:33:27.453Z,2.83
2019-02-08T13:37:30.901Z,2.80
2019-02-08T13:41:34.368Z,2.97
2019-02-08T13:45:37.813Z,2.27
2019-02-08T13:49:41.274Z,2.90
2019-02-08T13:53:44.766Z,3.27
2019-02-08T13:57:48.226Z,3.00
2019-02-08T14:01:51.698Z,2.80
2019-02-08T14:05:55.153Z,2.67
2019-02-08T14:09:58.608Z,3.03
2019-02-08T14:14:02.625Z,2.63
2019-02-08T14:18:06.106Z,3.00
2019-02-08T14:22:09.548Z,3.27
2019-02-08T14:26:13.963Z,2.97
2019-02-08T14:30:17.434Z,3.73
2019-02-08T14:34:20.894Z,2.57
2019-02-08T14:38:24.344Z,2.17
2019-02-08T14:42:27.806Z,2.00
2019-02-08T14:46:31.250Z,3.47
2019-02-08T14:50:34.707Z,3.00
2019-02-08T14:54:38.167Z,2.03
2019-02-08T14:58:41.631Z,2.37
2019-02-08T15:02:45.096Z,2.20
2019-02-08T15:06:48.544Z,1.80
2019-02-08T15:10:51.999Z,2.03
2019-02-08T15:14:55.461Z,2.90
2019-02-08T15:18:58.917Z,1.50
2019-02-08T15:23:02.378Z,1.30
2019-02-08T15:27:05.825Z,2.10
2019-02-08T15:31:09.355Z,1.30
2019-02-08T15:35:12.818Z,2.87
2019-02-08T15:39:16.288Z,1.87
2019-02-08T15:43:19.741Z,1.77
2019-02-08T15:47:23.186Z,1.73
2019-02-08T15:51:26.637Z,1.10
2019-02-08T15:55:30.095Z,1.17
2019-02-08T15:59:33.555Z,1.20
2019-02-08T16:03:37.056Z,1.33
2019-02-08T16:07:40.452Z,1.63
2019-02-08T16:11:43.905Z,1.30
2019-02-08T16:15:47.357Z,1.20
2019-02-08T16:19:50.807Z,1.60
2019-02-08T16:23:54.263Z,1.50
2019-02-08T16:27:57.699Z,1.60
2019-02-08T16:32:01.163Z,2.00
2019-02-08T16:36:04.618Z,1.60
2019-02-08T16:40:08.143Z,3.07
2019-02-08T16:44:11.624Z,1.90
2019-02-08T16:48:15.081Z,1.60
2019-02-08T16:52:18.546Z,2.40
2019-02-08T16:56:21.995Z,2.90
2019-02-08T17:00:25.470Z,2.53
2019-02-08T17:04:28.892Z,2.67
2019-02-08T17:08:32.347Z,2.43
2019-02-08T17:12:35.800Z,2.27
2019-02-08T17:16:39.260Z,2.10
2019-02-08T17:20:42.713Z,1.87
2019-02-08T17:24:46.150Z,2.00
2019-02-08T17:28:49.611Z,2.00
2019-02-08T17:32:53.071Z,1.90
2019-02-08T17:36:56.516Z,2.17
2019-02-08T17:40:59.974Z,2.00
2019-02-08T17:45:03.412Z,2.30
2019-02-08T17:49:06.872Z,2.50
2019-02-08T17:53:11.292Z,2.37
2019-02-08T17:57:14.757Z,1.93
2019-02-08T18:01:18.212Z,3.27
2019-02-08T18:05:21.658Z,1.90
2019-02-08T18:09:25.119Z,3.10
2019-02-08T18:13:28.693Z,5.27
2019-02-08T18:17:32.152Z,2.10
2019-02-08T18:21:35.592Z,1.97
2019-02-08T18:25:39.055Z,2.00
2019-02-08T18:29:42.516Z,2.00
2019-02-08T18:33:46.866Z,1.83
2019-02-08T18:37:50.405Z,2.60
2019-02-08T18:41:53.849Z,2.03
2019-02-08T18:45:57.306Z,2.70
2019-02-08T18:50:00.761Z,2.00
2019-02-08T18:54:05.300Z,1.60
2019-02-08T18:58:08.754Z,2.27
2019-02-08T19:02:12.198Z,1.83
2019-02-08T19:06:15.647Z,2.10
2019-02-08T19:10:19.105Z,1.87
2019-02-08T19:14:22.559Z,2.37
2019-02-08T19:18:26.012Z,1.77
2019-02-08T19:22:29.464Z,2.30
2019-02-08T19:26:32.915Z,2.00
2019-02-08T19:30:36.366Z,1.93
2019-02-08T19:34:39.830Z,2.13
2019-02-08T19:38:43.268Z,1.90
2019-02-08T19:42:46.905Z,2.63
2019-02-08T19:46:50.267Z,1.77
2019-02-08T19:50:53.750Z,2.07
2019-02-08T19:54:57.188Z,2.00
2019-02-08T19:59:00.628Z,2.67
2019-02-08T20:03:04.090Z,2.50
2019-02-08T20:07:07.542Z,2.07
2019-02-08T20:11:11.012Z,2.77
2019-02-08T20:15:14.471Z,2.37
2019-02-08T20:19:17.927Z,2.70
2019-02-08T20:23:22.365Z,1.83
2019-02-08T20:27:25.827Z,2.80
2019-02-08T20:31:29.291Z,2.30
2019-02-08T20:35:32.744Z,2.77
2019-02-08T20:39:36.194Z,2.00
2019-02-08T20:43:39.647Z,1.90
2019-02-08T20:47:43.103Z,2.10
2019-02-08T20:51:46.555Z,2.00
2019-02-08T20:55:52.302Z,2.23
2019-02-08T20:59:56.823Z,2.37
2019-02-08T21:04:00.290Z,2.30
2019-02-08T21:08:03.759Z,2.30
2019-02-08T21:12:07.225Z,2.37
2019-02-08T21:16:10.684Z,2.03
2019-02-08T21:20:14.125Z,2.90
2019-02-08T21:24:17.586Z,2.40
2019-02-08T21:28:21.040Z,3.10
2019-02-08T21:32:24.509Z,2.63
2019-02-08T21:36:27.965Z,2.60
2019-02-08T21:40:31.460Z,2.40
2019-02-08T21:44:34.922Z,2.90
2019-02-08T21:48:38.322Z,3.17
2019-02-08T21:52:41.775Z,3.93
2019-02-08T21:56:45.220Z,2.53
2019-02-08T22:00:48.678Z,3.07
2019-02-08T22:04:52.143Z,3.10
2019-02-08T22:08:55.602Z,2.67
2019-02-08T22:12:59.056Z,3.00
2019-02-08T22:17:02.501Z,2.70
2019-02-08T22:21:05.952Z,2.60
2019-02-08T22:25:09.435Z,2.67
2019-02-08T22:29:14.120Z,3.00
2019-02-08T22:33:17.803Z,2.70
2019-02-08T22:37:21.243Z,2.87
2019-02-08T22:41:24.694Z,2.93
2019-02-08T22:45:28.145Z,2.70
2019-02-08T22:49:31.599Z,2.90
2019-02-08T22:53:36.038Z,2.27
2019-02-08T22:57:39.479Z,2.73
2019-02-08T23:01:42.936Z,2.17
2019-02-08T23:05:46.384Z,2.10
2019-02-08T23:09:49.841Z,2.27
2019-02-08T23:13:53.282Z,2.70
2019-02-08T23:17:56.737Z,2.40
2019-02-08T23:22:00.182Z,2.53
2019-02-08T23:26:03.648Z,2.40
2019-02-08T23:30:07.099Z,2.53
2019-02-08T23:34:10.543Z,2.60
2019-02-08T23:38:14.000Z,2.40
2019-02-08T23:42:18.519Z,2.43
2019-02-08T23:46:21.973Z,2.30
2019-02-08T23:50:26.593Z,2.00
2019-02-08T23:54:30.043Z,2.10
2019-02-08T23:58:33.491Z,2.80
